X  Sluiten METAR luchtvaart weer gegevens      EHEH Eindhoven Airport
Temperatuur
15°C Temperatuur
11°C Dauwpunt
77% Vochtigheid



Wind
11 KM/U
7 MPH
3 M/S
6 KTS



210°
ZZW
Huidig weer

Geheel bewolkt Geheel bewolkt
Luchtdruk 1027.77 (hPa) - 30.35 (inHg)
Zicht 6 (mijl) - 9.7 (km)
Vliegveld
Vliegveld code EHEH

Locatie : Eindhoven Airport
Afstand: 10 (km)

Metar:
EHEH 122055Z AUTO 21006KT 9999 OVC230 15/11 Q1028 BLU

Tijd: 12-04-2024 22:55 CEST